createdAt,value
2023-01-01T00:01:40.047Z,100883.12
2023-01-01T00:04:11.784Z,100878.09
2023-01-01T00:06:39.290Z,100876.28
2023-01-01T00:09:25.578Z,100880.47
2023-01-01T00:11:53.297Z,100882.13
2023-01-01T00:14:20.776Z,100886.03
2023-01-01T00:16:48.421Z,100896.56
2023-01-01T00:19:16.114Z,100890.94
2023-01-01T00:21:43.553Z,100887.41
2023-01-01T00:24:11.065Z,100892.88
2023-01-01T00:26:38.775Z,100892.97
2023-01-01T00:29:06.228Z,100881.13
2023-01-01T00:31:33.712Z,100882.34
2023-01-01T00:34:01.874Z,100875.28
2023-01-01T00:36:30.265Z,100868.47
2023-01-01T00:38:57.780Z,100867.81
2023-01-01T00:41:25.484Z,100877.31
2023-01-01T00:43:52.943Z,100878.91
2023-01-01T00:46:20.443Z,100876.28
2023-01-01T00:48:48.146Z,100884.28
2023-01-01T00:51:15.702Z,100886.97
2023-01-01T00:53:43.157Z,100889.34
2023-01-01T00:56:10.884Z,100880.00
2023-01-01T00:58:38.244Z,100879.91
2023-01-01T01:01:05.839Z,100879.62
2023-01-01T01:03:33.719Z,100878.16
2023-01-01T01:06:04.092Z,100875.53
2023-01-01T01:08:33.634Z,100883.19
2023-01-01T01:11:22.250Z,100884.09
2023-01-01T01:13:51.704Z,100889.13
2023-01-01T01:16:23.292Z,100877.06
2023-01-01T01:18:52.013Z,100875.69
2023-01-01T01:21:21.707Z,100879.00
2023-01-01T01:23:50.705Z,100876.47
2023-01-01T01:26:24.234Z,100877.94
2023-01-01T01:28:52.874Z,100882.38
2023-01-01T01:31:21.862Z,100882.22
2023-01-01T01:33:49.742Z,100891.28
2023-01-01T01:36:18.759Z,100884.63
2023-01-01T01:38:46.655Z,100883.97
2023-01-01T01:41:26.795Z,100888.22
2023-01-01T01:44:04.337Z,100882.69
2023-01-01T01:46:38.553Z,100892.62
2023-01-01T01:49:15.339Z,100885.69
2023-01-01T01:51:43.191Z,100884.91
2023-01-01T01:54:13.188Z,100877.50
2023-01-01T01:56:53.967Z,100878.38
2023-01-01T01:59:26.601Z,100882.16
2023-01-01T02:01:54.568Z,100880.34
2023-01-01T02:04:22.967Z,100884.37
2023-01-01T02:06:50.414Z,100882.72
2023-01-01T02:09:18.475Z,100887.31
2023-01-01T02:11:46.255Z,100889.34
2023-01-01T02:14:13.985Z,100888.81
2023-01-01T02:16:51.677Z,100884.63
2023-01-01T02:19:25.333Z,100876.19
2023-01-01T02:21:53.020Z,100880.06
2023-01-01T02:24:39.221Z,100889.00
2023-01-01T02:27:13.591Z,100898.81
2023-01-01T02:30:02.952Z,100900.44
2023-01-01T02:32:43.700Z,100900.50
2023-01-01T02:35:37.602Z,100898.00
2023-01-01T02:38:09.845Z,100899.59
2023-01-01T02:40:39.969Z,100902.81
2023-01-01T02:43:07.491Z,100902.47
2023-01-01T02:45:35.045Z,100899.88
2023-01-01T02:48:07.901Z,100903.09
2023-01-01T02:50:35.802Z,100902.47
2023-01-01T02:53:27.277Z,100895.34
2023-01-01T02:56:04.302Z,100883.06
2023-01-01T02:59:17.022Z,100887.38
2023-01-01T03:01:48.968Z,100886.41
2023-01-01T03:04:22.644Z,100877.03
2023-01-01T03:07:12.665Z,100881.25
2023-01-01T03:09:49.636Z,100872.59
2023-01-01T03:12:25.401Z,100883.41
2023-01-01T03:14:59.046Z,100884.72
2023-01-01T03:17:32.818Z,100883.31
2023-01-01T03:20:03.745Z,100885.47
2023-01-01T03:22:33.494Z,100879.38
2023-01-01T03:25:07.104Z,100880.56
2023-01-01T03:27:46.430Z,100876.47
2023-01-01T03:30:15.843Z,100886.03
2023-01-01T03:33:07.743Z,100882.69
2023-01-01T03:35:35.655Z,100879.41
2023-01-01T03:38:04.942Z,100874.00
2023-01-01T03:40:35.227Z,100876.03
2023-01-01T03:43:07.901Z,100879.56
2023-01-01T03:45:41.547Z,100883.84
2023-01-01T03:48:10.804Z,100882.44
2023-01-01T03:50:48.108Z,100884.16
2023-01-01T03:53:25.172Z,100880.87
2023-01-01T03:56:24.132Z,100875.38
2023-01-01T03:58:56.779Z,100865.09
2023-01-01T04:01:32.676Z,100879.84
2023-01-01T04:04:01.435Z,100879.91
2023-01-01T04:06:29.099Z,100870.13
2023-01-01T04:08:58.465Z,100869.91
2023-01-01T04:11:47.437Z,100866.44
2023-01-01T04:14:39.131Z,100867.53
2023-01-01T04:17:08.242Z,100868.53
2023-01-01T04:19:35.628Z,100868.69
2023-01-01T04:22:03.868Z,100874.16
2023-01-01T04:24:31.585Z,100874.97
2023-01-01T04:26:59.019Z,100873.50
2023-01-01T04:29:26.427Z,100872.09
2023-01-01T04:31:54.156Z,100868.78
2023-01-01T04:34:21.585Z,100876.63
2023-01-01T04:36:48.965Z,100862.78
2023-01-01T04:39:17.001Z,100865.91
2023-01-01T04:41:44.378Z,100857.25
2023-01-01T04:44:11.807Z,100858.25
2023-01-01T04:46:39.492Z,100862.56
2023-01-01T04:49:06.944Z,100860.31
2023-01-01T04:51:34.407Z,100860.63
2023-01-01T04:54:02.301Z,100864.47
2023-01-01T04:56:29.682Z,100864.03
2023-01-01T04:58:58.600Z,100866.66
2023-01-01T05:01:28.113Z,100876.09
2023-01-01T05:03:56.909Z,100876.50
2023-01-01T05:06:24.501Z,100873.78
2023-01-01T05:08:54.809Z,100871.53
2023-01-01T05:11:27.531Z,100884.31
2023-01-01T05:13:58.681Z,100874.28
2023-01-01T05:16:28.443Z,100869.72
2023-01-01T05:18:57.798Z,100862.25
2023-01-01T05:21:27.684Z,100863.66
2023-01-01T05:23:56.472Z,100873.09
2023-01-01T05:26:28.127Z,100868.34
2023-01-01T05:28:56.504Z,100866.66
2023-01-01T05:31:27.078Z,100874.91
2023-01-01T05:33:55.104Z,100877.03
2023-01-01T05:36:28.227Z,100877.78
2023-01-01T05:38:56.323Z,100897.25
2023-01-01T05:41:24.338Z,100901.66
2023-01-01T05:43:52.586Z,100888.00
2023-01-01T05:46:22.619Z,100888.31
2023-01-01T05:48:50.808Z,100891.88
2023-01-01T05:51:23.814Z,100892.78
2023-01-01T05:53:53.439Z,100894.97
2023-01-01T05:56:21.363Z,100901.69
2023-01-01T05:58:48.939Z,100907.87
2023-01-01T06:01:16.620Z,100914.94
2023-01-01T06:03:44.954Z,100924.25
2023-01-01T06:06:14.405Z,100924.28
2023-01-01T06:08:42.302Z,100928.44
2023-01-01T06:11:12.119Z,100938.13
2023-01-01T06:13:39.527Z,100943.28
2023-01-01T06:16:07.434Z,100940.75
2023-01-01T06:18:35.607Z,100942.94
2023-01-01T06:21:06.952Z,100952.16
2023-01-01T06:23:34.931Z,100957.50
2023-01-01T06:26:13.852Z,100954.31
2023-01-01T06:28:41.920Z,100961.63
2023-01-01T06:31:10.763Z,100963.53
2023-01-01T06:33:38.985Z,100967.09
2023-01-01T06:36:09.552Z,100969.94
2023-01-01T06:38:39.605Z,100969.88
2023-01-01T06:41:10.827Z,100973.31
2023-01-01T06:43:38.641Z,100978.19
2023-01-01T06:46:18.051Z,100986.37
2023-01-01T06:48:47.290Z,100980.38
2023-01-01T06:51:17.005Z,100986.88
2023-01-01T06:53:44.409Z,100983.59
2023-01-01T06:56:12.620Z,100985.53
2023-01-01T06:58:40.230Z,100978.53
2023-01-01T07:01:11.318Z,100987.06
2023-01-01T07:03:39.881Z,100974.91
2023-01-01T07:06:08.085Z,100972.53
2023-01-01T07:08:36.164Z,100979.03
2023-01-01T07:11:04.022Z,100976.75
2023-01-01T07:13:31.652Z,100978.00
2023-01-01T07:16:00.441Z,100976.22
2023-01-01T07:18:28.464Z,100979.37
2023-01-01T07:20:58.059Z,100971.69
2023-01-01T07:23:26.765Z,100975.44
2023-01-01T07:25:55.052Z,100975.44
2023-01-01T07:28:23.695Z,100973.13
2023-01-01T07:30:52.463Z,100965.47
2023-01-01T07:33:22.540Z,100960.69
2023-01-01T07:35:50.215Z,100968.75
2023-01-01T07:38:17.581Z,100971.84
2023-01-01T07:40:45.417Z,100974.16
2023-01-01T07:43:13.766Z,100973.34
2023-01-01T07:45:41.293Z,100974.03
2023-01-01T07:48:13.920Z,100967.56
2023-01-01T07:50:42.848Z,100976.28
2023-01-01T07:53:10.494Z,100981.84
2023-01-01T07:55:38.170Z,100985.94
2023-01-01T07:58:05.549Z,100994.13
2023-01-01T08:00:33.262Z,100989.56
2023-01-01T08:03:01.108Z,100990.97
2023-01-01T08:05:28.682Z,101000.34
2023-01-01T08:07:56.231Z,100994.19
2023-01-01T08:10:23.902Z,101008.75
2023-01-01T08:12:51.280Z,101009.63
2023-01-01T08:15:18.685Z,101007.78
2023-01-01T08:17:47.362Z,101004.69
2023-01-01T08:20:15.066Z,101013.84
2023-01-01T08:22:42.426Z,101024.69
2023-01-01T08:25:10.157Z,101032.44
2023-01-01T08:27:38.193Z,101021.62
2023-01-01T08:30:06.333Z,101022.91
2023-01-01T08:32:33.866Z,101029.22
2023-01-01T08:35:01.273Z,101027.91
2023-01-01T08:37:28.752Z,101032.31
2023-01-01T08:39:56.469Z,101025.56
2023-01-01T08:42:23.909Z,101026.53
2023-01-01T08:44:51.457Z,101026.75
2023-01-01T08:47:21.750Z,101032.41
2023-01-01T08:49:49.362Z,101022.25
2023-01-01T08:52:17.368Z,101010.44
2023-01-01T08:54:45.028Z,101013.37
2023-01-01T08:57:12.485Z,101005.16
2023-01-01T08:59:40.130Z,101009.59
2023-01-01T09:02:08.051Z,101010.56
2023-01-01T09:04:35.637Z,101011.03
2023-01-01T09:07:03.055Z,101015.59
2023-01-01T09:09:31.775Z,101014.09
2023-01-01T09:12:04.265Z,101018.41
2023-01-01T09:14:33.937Z,101022.28
2023-01-01T09:17:01.732Z,101016.94
2023-01-01T09:19:29.177Z,101029.81
2023-01-01T09:21:56.863Z,101020.50
2023-01-01T09:24:24.574Z,101021.91
2023-01-01T09:26:52.308Z,101017.44
2023-01-01T09:29:21.651Z,101019.75
2023-01-01T09:31:49.322Z,101021.31
2023-01-01T09:34:17.997Z,101018.72
2023-01-01T09:36:46.508Z,101015.53
2023-01-01T09:39:15.510Z,101016.41
2023-01-01T09:41:55.585Z,101017.38
2023-01-01T09:44:45.192Z,101008.19
2023-01-01T09:47:21.493Z,101005.56
2023-01-01T09:49:50.386Z,101004.84
2023-01-01T09:52:19.816Z,101004.16
2023-01-01T09:54:51.908Z,101014.47
2023-01-01T09:57:20.358Z,101009.28
2023-01-01T09:59:47.840Z,101012.72
2023-01-01T10:03:00.215Z,101003.28
2023-01-01T10:05:32.491Z,101005.56
2023-01-01T10:08:22.836Z,101006.25
2023-01-01T10:11:20.791Z,101008.91
2023-01-01T10:13:48.322Z,101007.16
2023-01-01T10:16:23.908Z,101008.03
2023-01-01T10:18:55.178Z,101006.31
2023-01-01T10:21:34.062Z,100999.41
2023-01-01T10:24:05.959Z,100993.50
2023-01-01T10:26:35.080Z,100991.84
2023-01-01T10:29:15.412Z,100991.94
2023-01-01T10:31:46.954Z,100987.53
2023-01-01T10:34:19.798Z,100982.56
2023-01-01T10:36:47.529Z,100991.84
2023-01-01T10:39:16.328Z,100989.50
2023-01-01T10:41:44.761Z,100982.47
2023-01-01T10:44:13.576Z,100971.25
2023-01-01T10:46:49.467Z,100966.88
2023-01-01T10:49:17.170Z,100971.38
2023-01-01T10:51:47.756Z,100972.84
2023-01-01T10:54:29.605Z,100973.03
2023-01-01T10:56:59.718Z,100968.59
2023-01-01T10:59:35.336Z,100962.22
2023-01-01T11:02:24.002Z,100962.63
2023-01-01T11:04:52.764Z,100954.38
2023-01-01T11:07:32.119Z,100956.41
2023-01-01T11:10:04.298Z,100949.13
2023-01-01T11:15:44.586Z,100926.84
2023-01-01T11:18:15.407Z,100918.41
2023-01-01T11:20:43.481Z,100909.91
2023-01-01T11:23:53.431Z,100910.03
2023-01-01T11:26:26.996Z,100913.62
2023-01-01T11:29:22.534Z,100918.03
2023-01-01T11:31:50.973Z,100916.38
2023-01-01T11:34:37.101Z,100923.44
2023-01-01T11:37:26.972Z,100926.00
2023-01-01T11:39:56.577Z,100922.88
2023-01-01T11:42:27.076Z,100928.28
2023-01-01T11:45:00.924Z,100923.28
2023-01-01T11:47:38.355Z,100920.78
2023-01-01T11:50:36.714Z,100918.31
2023-01-01T11:53:24.644Z,100913.22
2023-01-01T11:56:10.221Z,100906.25
2023-01-01T11:58:51.966Z,100914.97
2023-01-01T12:01:19.515Z,100900.12
2023-01-01T12:03:57.683Z,100893.06
2023-01-01T12:06:32.203Z,100892.16
2023-01-01T12:09:13.253Z,100896.47
2023-01-01T12:11:49.849Z,100897.31
2023-01-01T12:14:37.348Z,100889.34
2023-01-01T12:17:26.759Z,100888.47
2023-01-01T12:20:04.808Z,100887.56
2023-01-01T12:22:32.498Z,100890.25
2023-01-01T12:25:00.762Z,100884.87
2023-01-01T12:27:52.709Z,100885.78
2023-01-01T12:30:36.725Z,100882.28
2023-01-01T12:33:19.585Z,100878.53
2023-01-01T12:35:55.069Z,100877.66
2023-01-01T12:38:42.613Z,100877.69
2023-01-01T12:41:25.783Z,100875.13
2023-01-01T12:44:05.373Z,100876.88
2023-01-01T12:46:37.842Z,100873.53
2023-01-01T12:49:30.492Z,100879.53
2023-01-01T12:52:42.807Z,100879.66
2023-01-01T12:55:28.383Z,100884.91
2023-01-01T12:58:20.238Z,100870.13
2023-01-01T13:00:56.109Z,100875.41
2023-01-01T13:03:37.763Z,100871.91
2023-01-01T13:06:06.362Z,100880.63
2023-01-01T13:08:35.684Z,100884.13
2023-01-01T13:11:06.249Z,100876.38
2023-01-01T13:13:34.063Z,100878.97
2023-01-01T13:16:01.543Z,100879.91
2023-01-01T13:18:33.515Z,100874.69
2023-01-01T13:21:07.608Z,100871.19
2023-01-01T13:23:34.895Z,100876.44
2023-01-01T13:26:17.746Z,100873.81
2023-01-01T13:28:57.753Z,100874.72
2023-01-01T13:32:06.392Z,100873.91
2023-01-01T13:34:54.032Z,100875.69
2023-01-01T13:37:24.603Z,100883.53
2023-01-01T13:40:11.100Z,100885.25
2023-01-01T13:43:00.746Z,100887.00
2023-01-01T13:48:39.972Z,100902.53
2023-01-01T13:51:28.019Z,100900.88
2023-01-01T13:54:36.015Z,100893.94
2023-01-01T13:57:15.171Z,100895.66
2023-01-01T13:59:42.724Z,100897.41
2023-01-01T14:02:20.488Z,100900.81
2023-01-01T14:04:55.024Z,100909.50
2023-01-01T14:07:51.161Z,100923.44
2023-01-01T14:10:31.863Z,100920.94
2023-01-01T14:13:11.103Z,100919.97
2023-01-01T14:15:40.605Z,100916.44
2023-01-01T14:18:16.883Z,100915.53
2023-01-01T14:20:48.296Z,100910.31
2023-01-01T14:23:28.311Z,100906.78
2023-01-01T14:25:56.506Z,100911.16
2023-01-01T14:28:29.606Z,100911.09
2023-01-01T14:30:59.349Z,100909.31
2023-01-01T14:33:32.435Z,100914.50
2023-01-01T14:36:02.204Z,100916.22
2023-01-01T14:38:35.125Z,100921.41
2023-01-01T14:41:30.725Z,100922.31
2023-01-01T14:44:04.949Z,100927.56
2023-01-01T14:46:33.075Z,100924.87
2023-01-01T14:49:03.975Z,100922.19
2023-01-01T14:51:32.013Z,100911.66
2023-01-01T14:54:01.878Z,100921.19
2023-01-01T14:56:32.198Z,100918.75
2023-01-01T14:59:24.226Z,100916.94
2023-01-01T15:02:17.738Z,100906.34
2023-01-01T15:04:45.659Z,100917.72
2023-01-01T15:07:22.688Z,100915.84
2023-01-01T15:09:51.957Z,100931.63
2023-01-01T15:12:21.013Z,100921.03
2023-01-01T15:14:50.605Z,100927.97
2023-01-01T15:17:20.623Z,100934.06
2023-01-01T15:20:00.967Z,100930.53
2023-01-01T15:22:31.541Z,100937.56
2023-01-01T15:25:00.112Z,100939.97
2023-01-01T15:27:29.699Z,100950.47
2023-01-01T15:29:57.853Z,100955.59
2023-01-01T15:32:31.213Z,100949.47
2023-01-01T15:35:07.272Z,100958.25
2023-01-01T15:37:46.481Z,100951.34
2023-01-01T15:40:14.209Z,100954.03
2023-01-01T15:42:46.111Z,100954.75
2023-01-01T15:45:19.616Z,100956.50
2023-01-01T15:47:48.674Z,100956.69
2023-01-01T15:50:25.108Z,100961.84
2023-01-01T15:52:56.179Z,100965.31
2023-01-01T15:55:26.261Z,100969.44
2023-01-01T15:57:53.913Z,100974.69
2023-01-01T16:00:23.693Z,100965.44
2023-01-01T16:02:53.459Z,100972.34
2023-01-01T16:05:23.662Z,100975.13
2023-01-01T16:08:02.130Z,100970.44
2023-01-01T16:10:29.766Z,100960.09
2023-01-01T16:12:58.860Z,100964.62
2023-01-01T16:15:27.353Z,100972.22
2023-01-01T16:17:55.306Z,100967.75
2023-01-01T16:20:23.268Z,100973.22
2023-01-01T16:22:50.754Z,100978.44
2023-01-01T16:25:20.240Z,100983.53
2023-01-01T16:27:48.514Z,100976.59
2023-01-01T16:30:16.032Z,100971.47
2023-01-01T16:32:43.437Z,100974.81
2023-01-01T16:35:14.226Z,100978.41
2023-01-01T16:37:41.636Z,100980.25
2023-01-01T16:40:09.764Z,100988.88
2023-01-01T16:42:37.506Z,100990.59
2023-01-01T16:45:05.744Z,100993.37
2023-01-01T16:47:33.122Z,100997.84
2023-01-01T16:50:01.106Z,100995.88
2023-01-01T16:52:33.503Z,100994.31
2023-01-01T16:55:01.663Z,100996.84
2023-01-01T16:57:29.133Z,101016.75
2023-01-01T16:59:56.633Z,101003.78
2023-01-01T17:02:24.627Z,101003.75
2023-01-01T17:04:52.142Z,100999.50
2023-01-01T17:07:20.511Z,100997.66
2023-01-01T17:09:48.217Z,100999.41
2023-01-01T17:12:15.916Z,100993.50
2023-01-01T17:14:43.429Z,100994.19
2023-01-01T17:17:11.161Z,100995.91
2023-01-01T17:19:38.585Z,101002.75
2023-01-01T17:22:05.961Z,100996.72
2023-01-01T17:24:33.661Z,101003.78
2023-01-01T17:27:01.112Z,101001.19
2023-01-01T17:29:28.522Z,101004.75
2023-01-01T17:31:56.300Z,101003.00
2023-01-01T17:34:23.678Z,101001.25
2023-01-01T17:36:51.067Z,101003.00
2023-01-01T17:39:18.772Z,101001.53
2023-01-01T17:41:46.253Z,101004.75
2023-01-01T17:44:13.800Z,100998.81
2023-01-01T17:46:44.039Z,100996.13
2023-01-01T17:49:11.660Z,100997.88
2023-01-01T17:51:39.469Z,100999.78
2023-01-01T17:54:10.348Z,101005.00
2023-01-01T17:56:37.783Z,101005.00
2023-01-01T17:59:05.366Z,101005.94
2023-01-01T18:01:34.809Z,101001.53
2023-01-01T18:04:05.295Z,100998.03
2023-01-01T18:06:37.352Z,101001.59
2023-01-01T18:09:12.332Z,100998.03
2023-01-01T18:11:40.477Z,101004.16
2023-01-01T18:14:07.954Z,101003.31
2023-01-01T18:16:37.158Z,101010.16
2023-01-01T18:19:05.323Z,101011.94
2023-01-01T18:21:33.637Z,101021.56
2023-01-01T18:24:01.654Z,101016.34
2023-01-01T18:26:31.168Z,101009.50
2023-01-01T18:29:02.237Z,101008.53
2023-01-01T18:31:31.631Z,101014.62
2023-01-01T18:34:00.368Z,101008.53
2023-01-01T18:36:30.880Z,101017.34
2023-01-01T18:39:23.196Z,101012.91
2023-01-01T18:42:02.663Z,101011.19
2023-01-01T18:44:31.768Z,101010.34
2023-01-01T18:47:07.693Z,101003.44
2023-01-01T18:49:38.652Z,101005.97
2023-01-01T18:52:05.939Z,101006.03
2023-01-01T18:54:34.104Z,101017.22
2023-01-01T18:57:07.911Z,101012.09
2023-01-01T18:59:37.419Z,101020.69
2023-01-01T19:02:41.183Z,101017.44
2023-01-01T19:05:15.060Z,101024.28
2023-01-01T19:07:45.864Z,101028.50
2023-01-01T19:10:13.719Z,101013.88
2023-01-01T19:12:41.326Z,101015.59
2023-01-01T19:15:18.029Z,101022.41
2023-01-01T19:17:45.589Z,101011.19
2023-01-01T19:20:19.409Z,101006.91
2023-01-01T19:22:47.819Z,101011.13
2023-01-01T19:25:36.006Z,101009.44
2023-01-01T19:28:29.524Z,101010.19
2023-01-01T19:30:57.607Z,101004.16
2023-01-01T19:33:25.222Z,101009.22
2023-01-01T19:35:52.719Z,101012.81
2023-01-01T19:38:20.386Z,101007.63
2023-01-01T19:40:47.938Z,101004.13
2023-01-01T19:43:15.381Z,100999.00
2023-01-01T19:45:43.227Z,101000.75
2023-01-01T19:48:10.636Z,100992.94
2023-01-01T19:50:38.023Z,100998.16
2023-01-01T19:53:05.745Z,100997.22
2023-01-01T19:55:33.490Z,100992.91
2023-01-01T19:58:01.261Z,100992.81
2023-01-01T20:00:29.029Z,100983.41
2023-01-01T20:03:03.821Z,100987.88
2023-01-01T20:05:44.230Z,100987.88
2023-01-01T20:08:11.921Z,100986.97
2023-01-01T20:10:39.314Z,100991.34
2023-01-01T20:13:06.725Z,100994.03
2023-01-01T20:15:34.465Z,100994.78
2023-01-01T20:18:01.905Z,100991.34
2023-01-01T20:20:29.340Z,100998.31
2023-01-01T20:22:57.038Z,100990.47
2023-01-01T20:25:24.450Z,100993.06
2023-01-01T20:28:10.319Z,100993.06
2023-01-01T20:30:38.279Z,100989.59
2023-01-01T20:33:05.717Z,101007.00
2023-01-01T20:35:51.698Z,100999.09
2023-01-01T20:38:19.350Z,100998.25
2023-01-01T20:40:46.745Z,100994.69
2023-01-01T20:43:14.111Z,100993.03
2023-01-01T20:45:42.734Z,100991.25
2023-01-01T20:48:13.489Z,100987.84
2023-01-01T20:50:45.642Z,100984.31
2023-01-01T20:53:13.279Z,100985.94
2023-01-01T20:55:40.847Z,100989.44
2023-01-01T20:58:08.487Z,100999.91
2023-01-01T21:00:35.856Z,100995.63
2023-01-01T21:03:03.307Z,101001.66
2023-01-01T21:05:31.078Z,100998.22
2023-01-01T21:07:58.511Z,100994.69
2023-01-01T21:10:25.973Z,100986.94
2023-01-01T21:12:53.647Z,100988.53
2023-01-01T21:15:21.034Z,100988.66
2023-01-01T21:17:48.493Z,100986.84
2023-01-01T21:20:16.225Z,100991.19
2023-01-01T21:22:43.930Z,100986.84
2023-01-01T21:25:49.729Z,100994.66
2023-01-01T21:28:12.988Z,100993.75
2023-01-01T21:30:52.202Z,100999.91
2023-01-01T21:33:27.181Z,100997.22
2023-01-01T21:35:54.766Z,100999.91
2023-01-01T21:38:28.285Z,100995.41
2023-01-01T21:40:59.363Z,100998.94
2023-01-01T21:43:45.593Z,100990.31
2023-01-01T21:46:18.371Z,100987.72
2023-01-01T21:48:55.551Z,100988.63
2023-01-01T21:51:25.893Z,100991.06
2023-01-01T21:54:02.240Z,100985.06
2023-01-01T21:56:38.433Z,100986.69
2023-01-01T21:59:27.165Z,100991.97
2023-01-01T22:02:04.336Z,100988.34
2023-01-01T22:04:52.504Z,100980.53
2023-01-01T22:10:17.332Z,100993.53
2023-01-01T22:12:45.500Z,100985.69
2023-01-01T22:15:25.116Z,100986.44
2023-01-01T22:18:11.389Z,100985.63
2023-01-01T22:20:45.333Z,100988.22
2023-01-01T22:23:19.499Z,100982.81
2023-01-01T22:25:47.677Z,100983.63
2023-01-01T22:28:40.933Z,100979.87
2023-01-01T22:31:13.811Z,100982.50
2023-01-01T22:33:44.208Z,100977.34
2023-01-01T22:36:22.440Z,100982.59
2023-01-01T22:38:50.202Z,100980.94
2023-01-01T22:41:17.727Z,100973.75
2023-01-01T22:43:47.212Z,100971.19
2023-01-01T22:46:32.263Z,100970.28
2023-01-01T22:49:01.435Z,100958.19
2023-01-01T22:51:40.632Z,100964.12
2023-01-01T22:54:08.139Z,100965.78
2023-01-01T22:56:35.807Z,100959.72
2023-01-01T22:59:04.600Z,100958.81
2023-01-01T23:01:32.341Z,100957.91
2023-01-01T23:04:00.454Z,100953.69
2023-01-01T23:06:28.076Z,100947.41
2023-01-01T23:08:55.601Z,100945.63
2023-01-01T23:11:23.469Z,100945.47
2023-01-01T23:14:09.999Z,100942.91
2023-01-01T23:16:37.706Z,100950.00
2023-01-01T23:19:05.960Z,100937.66
2023-01-01T23:21:34.751Z,100943.59
2023-01-01T23:24:04.688Z,100941.97
2023-01-01T23:26:32.335Z,100935.78
2023-01-01T23:28:59.862Z,100934.88
2023-01-01T23:31:27.907Z,100930.59
2023-01-01T23:33:56.196Z,100934.03
2023-01-01T23:36:27.219Z,100931.44
2023-01-01T23:38:54.948Z,100925.19
2023-01-01T23:41:23.111Z,100932.13
2023-01-01T23:43:50.838Z,100927.88
2023-01-01T23:46:19.014Z,100930.34
2023-01-01T23:48:47.334Z,100928.78
2023-01-01T23:51:16.100Z,100927.69
2023-01-01T23:53:43.850Z,100921.69
2023-01-01T23:56:11.335Z,100919.59
2023-01-01T23:58:38.753Z,100914.34
